createdAt,value
2023-03-15T00:02:17.222Z,98368.25
2023-03-15T00:04:54.711Z,98348.38
2023-03-15T00:07:28.023Z,98359.56
2023-03-15T00:10:01.448Z,98361.21
2023-03-15T00:12:35.063Z,98361.08
2023-03-15T00:15:11.409Z,98362.98
2023-03-15T00:17:45.312Z,98374.16
2023-03-15T00:20:20.051Z,98349.91
2023-03-15T00:22:53.368Z,98334.42
2023-03-15T00:25:26.619Z,98363.73
2023-03-15T00:27:59.906Z,98378.53
2023-03-15T00:30:33.665Z,98374.95
2023-03-15T00:33:09.313Z,98361.94
2023-03-15T00:35:43.784Z,98363.60
2023-03-15T00:38:17.138Z,98357.59
2023-03-15T00:40:51.036Z,98342.13
2023-03-15T00:43:24.337Z,98358.51
2023-03-15T00:45:59.290Z,98352.43
2023-03-15T00:48:38.413Z,98350.63
2023-03-15T00:51:14.449Z,98347.20
2023-03-15T00:53:50.041Z,98349.77
2023-03-15T00:56:55.945Z,98362.02
2023-03-15T01:00:08.347Z,98350.84
2023-03-15T01:02:42.336Z,98367.23
2023-03-15T01:05:16.373Z,98368.98
2023-03-15T01:07:50.052Z,98353.31
2023-03-15T01:10:23.593Z,98355.11
2023-03-15T01:12:56.862Z,98355.06
2023-03-15T01:15:30.391Z,98361.08
2023-03-15T01:18:04.713Z,98368.76
2023-03-15T01:20:38.024Z,98384.30
2023-03-15T01:23:11.924Z,98345.48
2023-03-15T01:25:45.666Z,98357.57
2023-03-15T01:28:19.362Z,98358.53
2023-03-15T01:30:54.096Z,98342.08
2023-03-15T01:33:27.912Z,98353.23
2023-03-15T01:36:06.849Z,98331.66
2023-03-15T01:38:41.718Z,98362.66
2023-03-15T01:41:16.801Z,98348.05
2023-03-15T01:43:50.976Z,98350.63
2023-03-15T01:46:33.567Z,98350.63
2023-03-15T01:49:12.691Z,98337.66
2023-03-15T01:51:51.305Z,98359.13
2023-03-15T01:54:31.677Z,98354.97
2023-03-15T01:57:08.683Z,98344.63
2023-03-15T01:59:45.327Z,98336.12
2023-03-15T02:02:19.218Z,98352.55
2023-03-15T02:04:56.107Z,98381.97
2023-03-15T02:07:33.996Z,98341.46
2023-03-15T02:10:12.784Z,98356.98
2023-03-15T02:12:49.748Z,98328.55
2023-03-15T02:15:23.224Z,98351.80
2023-03-15T02:17:56.626Z,98362.09
2023-03-15T02:20:36.063Z,98334.27
2023-03-15T02:23:13.211Z,98366.19
2023-03-15T02:25:50.233Z,98383.36
2023-03-15T02:28:25.734Z,98355.77
2023-03-15T02:30:59.321Z,98374.72
2023-03-15T02:33:37.110Z,98391.99
2023-03-15T02:36:13.254Z,98360.83
2023-03-15T02:38:46.642Z,98378.97
2023-03-15T02:41:23.297Z,98349.66
2023-03-15T02:43:59.509Z,98366.98
2023-03-15T02:46:33.433Z,98348.03
2023-03-15T02:49:09.264Z,98359.13
2023-03-15T02:51:42.600Z,98347.91
2023-03-15T02:54:15.977Z,98407.32
2023-03-15T02:56:49.571Z,98373.77
2023-03-15T02:59:23.030Z,98359.95
2023-03-15T03:01:56.331Z,98369.45
2023-03-15T03:04:30.060Z,98352.96
2023-03-15T03:07:03.459Z,98353.78
2023-03-15T03:09:38.342Z,98333.09
2023-03-15T03:12:13.020Z,98357.25
2023-03-15T03:14:47.913Z,98342.62
2023-03-15T03:20:08.192Z,98372.14
2023-03-15T03:22:45.330Z,98368.38
2023-03-15T03:25:18.718Z,98401.13
2023-03-15T03:27:54.283Z,98382.12
2023-03-15T03:30:27.597Z,98396.81
2023-03-15T03:33:01.053Z,98388.14
2023-03-15T03:35:35.395Z,98378.73
2023-03-15T03:38:09.221Z,98373.53
2023-03-15T03:40:44.231Z,98388.21
2023-03-15T03:43:17.581Z,98382.97
2023-03-15T03:45:52.741Z,98376.08
2023-03-15T03:48:26.684Z,98380.36
2023-03-15T03:51:00.797Z,98375.90
2023-03-15T03:53:34.026Z,98382.09
2023-03-15T03:56:08.865Z,98388.94
2023-03-15T03:58:42.302Z,98413.96
2023-03-15T04:01:25.959Z,98385.52
2023-03-15T04:04:00.386Z,98395.86
2023-03-15T04:06:34.276Z,98385.48
2023-03-15T04:09:08.207Z,98386.35
2023-03-15T04:11:44.817Z,98372.58
2023-03-15T04:14:20.607Z,98405.48
2023-03-15T04:17:06.831Z,98383.89
2023-03-15T04:19:40.340Z,98370.98
2023-03-15T04:22:15.568Z,98359.76
2023-03-15T04:25:02.911Z,98397.77
2023-03-15T04:27:40.423Z,98373.67
2023-03-15T04:30:32.683Z,98391.78
2023-03-15T04:33:13.707Z,98377.20
2023-03-15T04:36:05.396Z,98386.64
2023-03-15T04:38:44.673Z,98372.02
2023-03-15T04:44:16.382Z,98408.48
2023-03-15T04:49:32.017Z,98418.95
2023-03-15T04:52:07.755Z,98397.23
2023-03-15T04:54:53.140Z,98410.98
2023-03-15T04:57:30.661Z,98437.89
2023-03-15T05:00:13.179Z,98439.40
2023-03-15T05:02:52.659Z,98432.52
2023-03-15T05:05:30.499Z,98437.63
2023-03-15T05:08:11.366Z,98491.14
2023-03-15T05:10:48.999Z,98428.25
2023-03-15T05:13:30.722Z,98450.62
2023-03-15T05:16:09.866Z,98447.09
2023-03-15T05:21:43.267Z,98438.73
2023-03-15T05:24:29.856Z,98457.55
2023-03-15T05:27:21.717Z,98475.64
2023-03-15T05:32:47.360Z,98477.59
2023-03-15T05:38:44.553Z,98457.75
2023-03-15T05:41:27.845Z,98443.91
2023-03-15T05:44:02.840Z,98427.53
2023-03-15T05:46:53.386Z,98478.47
2023-03-15T05:49:37.509Z,98477.78
2023-03-15T05:52:28.250Z,98476.06
2023-03-15T05:55:15.173Z,98497.69
2023-03-15T05:57:51.820Z,98466.63
2023-03-15T06:00:39.505Z,98464.09
2023-03-15T06:03:25.573Z,98465.08
2023-03-15T06:06:40.904Z,98504.69
2023-03-15T06:09:15.746Z,98474.53
2023-03-15T06:11:51.204Z,98469.37
2023-03-15T06:14:24.661Z,98503.11
2023-03-15T06:16:59.649Z,98539.53
2023-03-15T06:19:36.805Z,98472.41
2023-03-15T06:22:09.929Z,98465.92
2023-03-15T06:24:45.057Z,98509.13
2023-03-15T06:27:22.385Z,98494.17
2023-03-15T06:30:00.831Z,98497.32
2023-03-15T06:32:40.496Z,98473.28
2023-03-15T06:35:13.755Z,98466.20
2023-03-15T06:37:47.482Z,98491.23
2023-03-15T06:40:21.589Z,98470.80
2023-03-15T06:42:55.212Z,98501.59
2023-03-15T06:45:28.542Z,98506.56
2023-03-15T06:48:03.431Z,98475.89
2023-03-15T06:50:46.413Z,98487.94
2023-03-15T06:53:12.046Z,98499.37
2023-03-15T06:55:45.722Z,98511.27
2023-03-15T06:58:19.904Z,98509.53
2023-03-15T07:00:53.330Z,98531.92
2023-03-15T07:03:26.635Z,98488.42
2023-03-15T07:06:00.771Z,98498.43
2023-03-15T07:08:34.065Z,98518.00
2023-03-15T07:11:07.782Z,98519.92
2023-03-15T07:13:41.141Z,98532.28
2023-03-15T07:16:14.512Z,98531.47
2023-03-15T07:18:48.166Z,98553.19
2023-03-15T07:21:21.309Z,98543.62
2023-03-15T07:23:54.648Z,98541.88
2023-03-15T07:26:27.787Z,98555.79
2023-03-15T07:29:01.111Z,98524.50
2023-03-15T07:31:34.423Z,98522.77
2023-03-15T07:34:07.665Z,98527.13
2023-03-15T07:36:40.894Z,98523.64
2023-03-15T07:39:15.512Z,98502.78
2023-03-15T07:41:49.006Z,98502.75
2023-03-15T07:44:24.238Z,98502.67
2023-03-15T07:46:57.469Z,98526.93
2023-03-15T07:49:32.048Z,98554.61
2023-03-15T07:52:05.628Z,98507.44
2023-03-15T07:54:39.074Z,98519.22
2023-03-15T07:57:13.061Z,98518.05
2023-03-15T07:59:46.404Z,98510.45
2023-03-15T08:02:20.176Z,98524.32
2023-03-15T08:04:53.468Z,98498.34
2023-03-15T08:07:26.890Z,98513.30
2023-03-15T08:10:02.785Z,98542.86
2023-03-15T08:12:46.705Z,98527.26
2023-03-15T08:15:20.844Z,98516.70
2023-03-15T08:17:55.026Z,98510.58
2023-03-15T08:20:29.820Z,98530.02
2023-03-15T08:23:03.624Z,98522.45
2023-03-15T08:25:38.814Z,98530.91
2023-03-15T08:28:12.310Z,98516.61
2023-03-15T08:30:45.775Z,98541.03
2023-03-15T08:33:19.121Z,98534.84
2023-03-15T08:35:56.502Z,98527.69
2023-03-15T08:38:29.936Z,98525.10
2023-03-15T08:41:03.753Z,98534.89
2023-03-15T08:43:36.967Z,98540.72
2023-03-15T08:46:10.265Z,98546.30
2023-03-15T08:48:43.363Z,98524.66
2023-03-15T08:51:16.700Z,98524.53
2023-03-15T08:53:50.376Z,98537.16
2023-03-15T08:56:23.602Z,98536.28
2023-03-15T08:58:57.000Z,98540.69
2023-03-15T09:01:31.153Z,98520.05
2023-03-15T09:04:04.555Z,98516.70
2023-03-15T09:06:39.266Z,98526.11
2023-03-15T09:09:14.455Z,98531.45
2023-03-15T09:11:51.048Z,98515.53
2023-03-15T09:14:24.381Z,98556.23
2023-03-15T09:16:57.638Z,98517.84
2023-03-15T09:19:32.483Z,98495.92
2023-03-15T09:22:16.824Z,98552.56
2023-03-15T09:24:41.127Z,98569.32
2023-03-15T09:27:14.584Z,98493.45
2023-03-15T09:29:47.799Z,98524.30
2023-03-15T09:32:21.816Z,98519.07
2023-03-15T09:34:55.032Z,98526.11
2023-03-15T09:37:29.052Z,98529.59
2023-03-15T09:40:02.775Z,98534.44
2023-03-15T09:42:40.763Z,98528.05
2023-03-15T09:45:17.668Z,98522.05
2023-03-15T09:47:54.075Z,98527.48
2023-03-15T09:50:30.668Z,98556.35
2023-03-15T09:53:07.133Z,98543.84
2023-03-15T09:55:46.039Z,98565.32
2023-03-15T09:58:22.585Z,98546.05
2023-03-15T10:00:58.865Z,98605.30
2023-03-15T10:03:36.958Z,98584.28
2023-03-15T10:06:14.842Z,98572.66
2023-03-15T10:08:48.958Z,98596.58
2023-03-15T10:11:25.513Z,98603.75
2023-03-15T10:14:11.747Z,98576.83
2023-03-15T10:16:47.152Z,98572.66
2023-03-15T10:19:29.584Z,98564.84
2023-03-15T10:22:06.801Z,98579.69
2023-03-15T10:24:43.205Z,98571.68
2023-03-15T10:27:23.276Z,98588.97
2023-03-15T10:30:00.084Z,98587.10
2023-03-15T10:32:38.456Z,98568.50
2023-03-15T10:35:17.221Z,98578.88
2023-03-15T10:37:53.440Z,98574.13
2023-03-15T10:40:44.605Z,98583.63
2023-03-15T10:43:23.411Z,98575.98
2023-03-15T10:46:03.262Z,98572.64
2023-03-15T10:48:39.202Z,98579.74
2023-03-15T10:54:04.356Z,98574.98
2023-03-15T10:56:41.917Z,98555.69
2023-03-15T10:59:21.202Z,98574.41
2023-03-15T11:01:56.199Z,98560.69
2023-03-15T11:04:33.116Z,98564.16
2023-03-15T11:07:08.281Z,98544.02
2023-03-15T11:09:43.128Z,98557.50
2023-03-15T11:12:25.093Z,98577.74
2023-03-15T11:15:03.323Z,98546.47
2023-03-15T11:17:39.657Z,98568.37
2023-03-15T11:20:23.447Z,98577.96
2023-03-15T11:22:57.479Z,98565.86
2023-03-15T11:25:33.325Z,98558.09
2023-03-15T11:28:06.848Z,98544.22
2023-03-15T11:30:43.040Z,98558.22
2023-03-15T11:33:25.064Z,98560.85
2023-03-15T11:36:01.410Z,98548.67
2023-03-15T11:38:38.896Z,98546.94
2023-03-15T11:41:18.617Z,98554.68
2023-03-15T11:43:59.352Z,98552.94
2023-03-15T11:46:36.714Z,98566.00
2023-03-15T11:49:16.426Z,98559.89
2023-03-15T11:51:49.714Z,98551.20
2023-03-15T11:54:24.495Z,98559.87
2023-03-15T11:56:59.226Z,98555.52
2023-03-15T11:59:34.451Z,98549.41
2023-03-15T12:02:31.440Z,98538.11
2023-03-15T12:05:17.636Z,98523.34
2023-03-15T12:08:02.613Z,98541.62
2023-03-15T12:10:51.048Z,98544.09
2023-03-15T12:13:28.917Z,98527.33
2023-03-15T12:16:00.805Z,98538.63
2023-03-15T12:18:37.484Z,98548.86
2023-03-15T12:21:23.620Z,98542.09
2023-03-15T12:24:05.371Z,98535.23
2023-03-15T12:26:48.581Z,98546.47
2023-03-15T12:29:26.086Z,98538.52
2023-03-15T12:32:03.151Z,98560.31
2023-03-15T12:34:49.410Z,98544.73
2023-03-15T12:37:25.972Z,98545.64
2023-03-15T12:40:05.809Z,98541.20
2023-03-15T12:43:16.277Z,98556.84
2023-03-15T12:45:50.248Z,98527.59
2023-03-15T12:48:33.540Z,98543.26
2023-03-15T12:51:16.198Z,98559.96
2023-03-15T12:53:53.836Z,98560.07
2023-03-15T12:56:33.340Z,98586.39
2023-03-15T12:59:14.280Z,98583.08
2023-03-15T13:01:51.321Z,98556.23
2023-03-15T13:04:25.548Z,98540.34
2023-03-15T13:07:18.621Z,98545.03
2023-03-15T13:10:40.387Z,98549.74
2023-03-15T13:13:23.683Z,98572.17
2023-03-15T13:16:13.146Z,98567.39
2023-03-15T13:18:53.441Z,98575.30
2023-03-15T13:21:32.242Z,98561.26
2023-03-15T13:24:09.460Z,98569.98
2023-03-15T13:26:52.317Z,98571.02
2023-03-15T13:29:30.582Z,98563.96
2023-03-15T13:32:07.697Z,98586.55
2023-03-15T13:34:41.434Z,98549.13
2023-03-15T13:37:19.219Z,98556.06
2023-03-15T13:40:01.094Z,98554.59
2023-03-15T13:42:34.550Z,98533.12
2023-03-15T13:45:17.164Z,98531.34
2023-03-15T13:47:53.501Z,98540.84
2023-03-15T13:50:27.096Z,98544.39
2023-03-15T13:53:00.442Z,98544.97
2023-03-15T13:55:36.237Z,98549.71
2023-03-15T13:58:11.038Z,98538.95
2023-03-15T14:00:44.534Z,98550.06
2023-03-15T14:03:21.823Z,98556.12
2023-03-15T14:05:57.395Z,98552.78
2023-03-15T14:08:33.864Z,98549.67
2023-03-15T14:11:17.446Z,98556.41
2023-03-15T14:14:02.818Z,98565.11
2023-03-15T14:16:57.203Z,98560.94
2023-03-15T14:19:21.646Z,98555.01
2023-03-15T14:21:57.659Z,98559.85
2023-03-15T14:24:34.367Z,98561.78
2023-03-15T14:27:11.262Z,98565.36
2023-03-15T14:29:49.200Z,98567.09
2023-03-15T14:32:29.371Z,98569.66
2023-03-15T14:35:06.038Z,98568.80
2023-03-15T14:37:44.420Z,98575.70
2023-03-15T14:40:23.527Z,98564.39
2023-03-15T14:42:59.544Z,98584.27
2023-03-15T14:45:34.426Z,98575.55
2023-03-15T14:48:11.253Z,98580.68
2023-03-15T14:50:46.809Z,98585.84
2023-03-15T14:53:23.268Z,98584.05
2023-03-15T14:55:56.609Z,98580.55
2023-03-15T14:58:29.986Z,98585.70
2023-03-15T15:01:04.246Z,98585.64
2023-03-15T15:03:41.314Z,98582.09
2023-03-15T15:06:16.662Z,98578.53
2023-03-15T15:08:52.820Z,98574.19
2023-03-15T15:11:26.176Z,98575.02
2023-03-15T15:13:59.896Z,98576.77
2023-03-15T15:16:33.387Z,98574.13
2023-03-15T15:19:07.019Z,98566.33
2023-03-15T15:21:41.106Z,98572.34
2023-03-15T15:24:17.906Z,98570.46
2023-03-15T15:26:53.204Z,98570.38
2023-03-15T15:29:26.547Z,98575.39
2023-03-15T15:32:02.486Z,98573.60
2023-03-15T15:34:37.386Z,98568.33
2023-03-15T15:37:16.314Z,98573.44
2023-03-15T15:39:50.448Z,98574.25
2023-03-15T15:42:23.586Z,98579.37
2023-03-15T15:44:56.764Z,98574.16
2023-03-15T15:47:30.625Z,98573.16
2023-03-15T15:50:04.052Z,98567.91
2023-03-15T15:52:40.805Z,98572.23
2023-03-15T15:55:17.096Z,98581.67
2023-03-15T15:57:53.019Z,98579.88
2023-03-15T16:00:28.044Z,98578.13
2023-03-15T16:03:02.286Z,98579.73
2023-03-15T16:08:20.661Z,98580.63
2023-03-15T16:10:53.926Z,98567.41
2023-03-15T16:13:27.420Z,98581.97
2023-03-15T16:16:01.270Z,98540.14
2023-03-15T16:18:34.726Z,98587.83
2023-03-15T16:21:12.093Z,98597.25
2023-03-15T16:23:47.451Z,98594.64
2023-03-15T16:26:20.855Z,98600.55
2023-03-15T16:28:54.072Z,98608.23
2023-03-15T16:34:19.978Z,98607.25
2023-03-15T16:36:55.549Z,98608.79
2023-03-15T16:39:29.114Z,98620.02
2023-03-15T16:44:56.719Z,98617.64
2023-03-15T16:47:31.248Z,98628.69
2023-03-15T16:50:04.867Z,98636.61
2023-03-15T16:52:38.279Z,98638.36
2023-03-15T16:55:14.868Z,98646.89
2023-03-15T16:57:52.738Z,98653.75
2023-03-15T17:00:28.240Z,98638.33
2023-03-15T17:03:04.639Z,98654.70
2023-03-15T17:05:41.156Z,98632.17
2023-03-15T17:08:20.764Z,98629.60
2023-03-15T17:10:54.417Z,98642.41
2023-03-15T17:13:32.067Z,98647.60
2023-03-15T17:16:06.627Z,98646.74
2023-03-15T17:18:39.914Z,98654.42
2023-03-15T17:21:15.899Z,98646.63
2023-03-15T17:23:51.005Z,98662.96
2023-03-15T17:26:25.142Z,98626.63
2023-03-15T17:28:59.300Z,98637.83
2023-03-15T17:31:40.883Z,98663.72
2023-03-15T17:34:16.706Z,98646.39
2023-03-15T17:36:54.001Z,98641.17
2023-03-15T17:39:28.352Z,98669.53
2023-03-15T17:42:05.836Z,98636.77
2023-03-15T17:44:39.112Z,98660.80
2023-03-15T17:47:15.339Z,98663.41
2023-03-15T17:49:51.647Z,98651.41
2023-03-15T17:52:28.148Z,98663.39
2023-03-15T17:55:01.326Z,98659.00
2023-03-15T17:57:36.509Z,98677.10
2023-03-15T18:00:13.478Z,98664.19
2023-03-15T18:02:55.039Z,98670.28
2023-03-15T18:05:25.137Z,98649.56
2023-03-15T18:07:59.860Z,98662.43
2023-03-15T18:10:39.901Z,98639.26
2023-03-15T18:13:22.183Z,98645.15
2023-03-15T18:15:57.173Z,98646.09
2023-03-15T18:18:30.362Z,98655.73
2023-03-15T18:21:03.736Z,98647.86
2023-03-15T18:23:37.007Z,98654.67
2023-03-15T18:26:31.759Z,98654.63
2023-03-15T18:29:12.028Z,98653.04
2023-03-15T18:31:45.514Z,98648.66
2023-03-15T18:34:20.456Z,98664.89
2023-03-15T18:36:54.266Z,98647.65
2023-03-15T18:39:28.557Z,98652.91
2023-03-15T18:42:01.995Z,98646.02
2023-03-15T18:44:35.576Z,98660.63
2023-03-15T18:47:08.867Z,98664.97
2023-03-15T18:49:41.966Z,98666.73
2023-03-15T18:52:18.924Z,98656.42
2023-03-15T18:54:54.708Z,98658.91
2023-03-15T18:57:28.006Z,98640.09
2023-03-15T19:00:01.178Z,98651.20
2023-03-15T19:02:34.594Z,98637.38
2023-03-15T19:05:10.813Z,98646.02
2023-03-15T19:07:52.096Z,98663.34
2023-03-15T19:10:28.513Z,98664.97
2023-03-15T19:13:04.341Z,98661.45
2023-03-15T19:15:37.455Z,98633.80
2023-03-15T19:18:13.050Z,98648.51
2023-03-15T19:20:49.898Z,98644.98
2023-03-15T19:23:23.258Z,98640.64
2023-03-15T19:25:56.474Z,98641.53
2023-03-15T19:28:30.440Z,98638.97
2023-03-15T19:31:07.442Z,98634.85
2023-03-15T19:33:40.623Z,98638.98
2023-03-15T19:36:17.366Z,98638.98
2023-03-15T19:39:03.745Z,98639.88
2023-03-15T19:41:36.889Z,98635.56
2023-03-15T19:44:10.308Z,98643.30
2023-03-15T19:49:25.671Z,98641.75
2023-03-15T19:51:59.075Z,98651.07
2023-03-15T19:54:35.386Z,98650.16
2023-03-15T19:57:08.823Z,98647.56
2023-03-15T19:59:41.966Z,98647.52
2023-03-15T20:02:16.169Z,98650.18
2023-03-15T20:04:49.576Z,98645.11
2023-03-15T20:07:25.513Z,98643.38
2023-03-15T20:09:58.853Z,98647.69
2023-03-15T20:12:33.268Z,98648.55
2023-03-15T20:15:11.029Z,98651.07
2023-03-15T20:17:48.986Z,98652.82
2023-03-15T20:20:21.668Z,98649.31
2023-03-15T20:22:54.972Z,98645.81
2023-03-15T20:25:28.239Z,98649.14
2023-03-15T20:28:01.515Z,98652.91
2023-03-15T20:30:34.779Z,98646.25
2023-03-15T20:36:33.519Z,98637.52
2023-03-15T20:39:50.037Z,98645.02
2023-03-15T20:42:23.961Z,98649.47
2023-03-15T20:45:38.786Z,98642.69
2023-03-15T20:48:51.694Z,98654.92
2023-03-15T20:51:35.641Z,98642.86
2023-03-15T20:54:16.104Z,98636.23
2023-03-15T20:56:49.325Z,98644.80
2023-03-15T20:59:23.535Z,98651.78
2023-03-15T21:01:56.685Z,98645.80
2023-03-15T21:04:29.773Z,98645.05
2023-03-15T21:07:04.263Z,98647.63
2023-03-15T21:09:37.590Z,98648.50
2023-03-15T21:12:11.435Z,98646.77
2023-03-15T21:14:44.662Z,98644.18
2023-03-15T21:17:17.953Z,98645.09
2023-03-15T21:19:51.290Z,98647.70
2023-03-15T21:22:24.392Z,98652.80
2023-03-15T21:24:57.661Z,98651.89
2023-03-15T21:27:33.408Z,98646.72
2023-03-15T21:30:08.278Z,98645.75
2023-03-15T21:32:41.753Z,98655.25
2023-03-15T21:35:16.810Z,98650.97
2023-03-15T21:37:53.502Z,98643.02
2023-03-15T21:40:30.836Z,98636.98
2023-03-15T21:43:07.215Z,98648.00
2023-03-15T21:45:43.193Z,98650.53
2023-03-15T21:48:18.628Z,98652.97
2023-03-15T21:50:57.216Z,98647.66
2023-03-15T21:53:34.700Z,98650.04
2023-03-15T21:56:11.125Z,98642.23
2023-03-15T21:58:46.617Z,98645.58
2023-03-15T22:01:20.546Z,98629.13
2023-03-15T22:03:55.695Z,98642.77
2023-03-15T22:06:31.013Z,98652.11
2023-03-15T22:09:04.491Z,98645.96
2023-03-15T22:11:41.515Z,98656.39
2023-03-15T22:14:15.307Z,98648.79
2023-03-15T22:16:48.670Z,98639.28
2023-03-15T22:19:23.109Z,98652.91
2023-03-15T22:21:57.512Z,98655.41
2023-03-15T22:24:32.919Z,98648.48
2023-03-15T22:27:07.663Z,98646.73
2023-03-15T22:29:45.097Z,98655.38
2023-03-15T22:32:25.128Z,98663.92
2023-03-15T22:35:02.765Z,98662.16
2023-03-15T22:37:43.671Z,98658.78
2023-03-15T22:40:26.695Z,98656.78
2023-03-15T22:43:01.242Z,98661.12
2023-03-15T22:45:36.880Z,98660.35
2023-03-15T22:48:10.429Z,98670.69
2023-03-15T22:50:43.486Z,98661.24
2023-03-15T22:53:16.689Z,98656.94
2023-03-15T22:55:49.951Z,98661.37
2023-03-15T22:58:26.039Z,98663.92
2023-03-15T23:01:00.631Z,98655.25
2023-03-15T23:03:35.775Z,98656.17
2023-03-15T23:06:13.701Z,98661.37
2023-03-15T23:08:53.465Z,98657.95
2023-03-15T23:11:30.469Z,98651.06
2023-03-15T23:14:04.777Z,98645.91
2023-03-15T23:16:39.134Z,98649.44
2023-03-15T23:19:20.673Z,98640.80
2023-03-15T23:21:59.155Z,98651.19
2023-03-15T23:24:38.676Z,98641.56
2023-03-15T23:27:22.108Z,98643.16
2023-03-15T23:30:07.572Z,98630.31
2023-03-15T23:32:50.960Z,98632.77
2023-03-15T23:35:29.266Z,98615.61
2023-03-15T23:38:09.241Z,98618.94
2023-03-15T23:40:48.866Z,98609.52
2023-03-15T23:43:29.372Z,98619.06
2023-03-15T23:46:15.236Z,98619.80
2023-03-15T23:48:59.556Z,98629.20
2023-03-15T23:51:46.842Z,98618.72
